createdAt,value
2023-04-18T00:00:50.919Z,2.52
2023-04-18T00:01:50.902Z,2.53
2023-04-18T00:02:50.967Z,2.61
2023-04-18T00:03:51.037Z,2.51
2023-04-18T00:04:51.034Z,2.48
2023-04-18T00:05:50.959Z,2.48
2023-04-18T00:06:50.970Z,2.60
2023-04-18T00:07:51.062Z,2.52
2023-04-18T00:08:51.129Z,2.66
2023-04-18T00:09:51.200Z,2.55
2023-04-18T00:10:51.275Z,2.44
2023-04-18T00:11:51.369Z,2.49
2023-04-18T00:12:51.451Z,2.55
2023-04-18T00:13:51.498Z,2.59
2023-04-18T00:14:51.517Z,2.53
2023-04-18T00:15:51.525Z,2.42
2023-04-18T00:16:51.566Z,2.34
2023-04-18T00:17:51.592Z,2.48
2023-04-18T00:18:51.561Z,2.54
2023-04-18T00:19:51.585Z,2.53
2023-04-18T00:20:51.583Z,2.47
2023-04-18T00:21:51.622Z,2.49
2023-04-18T00:22:51.610Z,2.42
2023-04-18T00:23:51.644Z,2.42
2023-04-18T00:24:51.738Z,2.50
2023-04-18T00:25:51.808Z,2.39
2023-04-18T00:26:51.876Z,2.39
2023-04-18T00:27:51.948Z,2.34
2023-04-18T00:28:52.073Z,2.44
2023-04-18T00:29:52.119Z,2.46
2023-04-18T00:30:52.236Z,2.48
2023-04-18T00:31:52.262Z,2.45
2023-04-18T00:32:52.370Z,2.42
2023-04-18T00:33:52.413Z,2.56
2023-04-18T00:34:52.489Z,2.55
2023-04-18T00:35:52.634Z,2.57
2023-04-18T00:36:52.642Z,2.57
2023-04-18T00:37:52.725Z,2.49
2023-04-18T00:38:52.859Z,2.49
2023-04-18T00:39:52.992Z,2.50
2023-04-18T00:40:52.959Z,2.53
2023-04-18T00:41:53.043Z,2.50
2023-04-18T00:42:53.115Z,2.51
2023-04-18T00:43:53.197Z,2.57
2023-04-18T00:44:53.272Z,2.43
2023-04-18T00:45:53.415Z,2.49
2023-04-18T00:46:53.423Z,2.46
2023-04-18T00:47:53.516Z,2.43
2023-04-18T00:48:53.594Z,2.44
2023-04-18T00:49:53.673Z,2.44
2023-04-18T00:50:53.729Z,2.47
2023-04-18T00:51:53.819Z,2.49
2023-04-18T00:52:53.889Z,2.51
2023-04-18T00:53:53.907Z,2.51
2023-04-18T00:54:53.922Z,2.52
2023-04-18T00:55:53.925Z,2.53
2023-04-18T00:56:53.931Z,2.57
2023-04-18T00:57:53.937Z,2.61
2023-04-18T00:58:53.955Z,2.57
2023-04-18T00:59:53.955Z,2.58
2023-04-18T01:00:54.077Z,2.56
2023-04-18T01:01:54.042Z,2.59
2023-04-18T01:02:54.161Z,2.55
2023-04-18T01:03:54.222Z,2.55
2023-04-18T01:04:54.200Z,2.55
2023-04-18T01:05:54.266Z,2.61
2023-04-18T01:06:54.380Z,2.54
2023-04-18T01:07:54.423Z,2.61
2023-04-18T01:08:54.496Z,2.57
2023-04-18T01:09:54.619Z,2.59
2023-04-18T01:10:54.658Z,2.60
2023-04-18T01:11:54.715Z,2.56
2023-04-18T01:12:54.787Z,2.50
2023-04-18T01:13:54.890Z,2.54
2023-04-18T01:14:54.945Z,2.59
2023-04-18T01:15:55.068Z,2.55
2023-04-18T01:16:55.169Z,2.52
2023-04-18T01:17:55.230Z,2.62
2023-04-18T01:18:55.244Z,2.66
2023-04-18T01:19:55.334Z,2.57
2023-04-18T01:20:55.429Z,2.57
2023-04-18T01:21:55.500Z,2.56
2023-04-18T01:22:55.574Z,2.58
2023-04-18T01:23:55.670Z,2.54
2023-04-18T01:24:55.725Z,2.64
2023-04-18T01:25:55.814Z,2.55
2023-04-18T01:26:55.893Z,2.57
2023-04-18T01:27:55.974Z,2.55
2023-04-18T01:28:56.046Z,2.43
2023-04-18T01:29:56.061Z,2.44
2023-04-18T01:30:56.180Z,2.45
2023-04-18T01:31:56.088Z,2.45
2023-04-18T01:32:56.094Z,2.46
2023-04-18T01:33:56.114Z,2.51
2023-04-18T01:34:56.114Z,2.57
2023-04-18T01:35:56.125Z,2.55
2023-04-18T01:36:56.151Z,2.55
2023-04-18T01:37:56.152Z,2.62
2023-04-18T01:38:56.235Z,2.61
2023-04-18T01:39:56.302Z,2.68
2023-04-18T01:40:56.443Z,2.66
2023-04-18T01:41:56.524Z,2.70
2023-04-18T01:42:56.583Z,2.63
2023-04-18T01:43:56.662Z,2.57
2023-04-18T01:44:56.745Z,2.50
2023-04-18T01:45:56.964Z,2.44
2023-04-18T01:46:56.979Z,2.50
2023-04-18T01:47:56.996Z,2.58
2023-04-18T01:48:57.154Z,2.67
2023-04-18T01:49:57.080Z,2.71
2023-04-18T01:50:57.184Z,2.63
2023-04-18T01:51:57.242Z,2.73
2023-04-18T01:52:57.334Z,2.72
2023-04-18T01:53:57.405Z,2.62
2023-04-18T01:54:57.491Z,2.65
2023-04-18T01:55:57.557Z,2.62
2023-04-18T01:56:57.649Z,2.68
2023-04-18T01:57:57.708Z,2.70
2023-04-18T01:58:57.798Z,2.64
2023-04-18T01:59:57.863Z,2.65
2023-04-18T02:00:57.993Z,2.73
2023-04-18T02:01:58.089Z,2.77
2023-04-18T02:02:58.312Z,2.77
2023-04-18T02:03:58.268Z,2.68
2023-04-18T02:04:58.257Z,2.69
2023-04-18T02:05:58.364Z,2.64
2023-04-18T02:06:58.416Z,2.62
2023-04-18T02:07:58.503Z,2.65
2023-04-18T02:08:58.579Z,2.64
2023-04-18T02:09:58.642Z,2.75
2023-04-18T02:10:58.715Z,2.66
2023-04-18T02:11:58.779Z,2.64
2023-04-18T02:12:58.874Z,2.72
2023-04-18T02:13:58.939Z,2.73
2023-04-18T02:14:59.014Z,2.70
2023-04-18T02:15:59.121Z,2.69
2023-04-18T02:16:59.199Z,2.74
2023-04-18T02:17:59.269Z,2.63
2023-04-18T02:18:59.312Z,2.66
2023-04-18T02:19:59.390Z,2.78
2023-04-18T02:20:59.455Z,2.71
2023-04-18T02:21:59.535Z,2.77
2023-04-18T02:22:59.620Z,2.75
2023-04-18T02:23:59.694Z,2.79
2023-04-18T02:24:59.777Z,2.70
2023-04-18T02:25:59.842Z,2.62
2023-04-18T02:26:59.926Z,2.58
2023-04-18T02:28:00.028Z,2.56
2023-04-18T02:29:00.114Z,2.65
2023-04-18T02:30:00.186Z,2.69
2023-04-18T02:31:00.270Z,2.69
2023-04-18T02:32:00.397Z,2.61
2023-04-18T02:33:00.473Z,2.55
2023-04-18T02:34:00.482Z,2.69
2023-04-18T02:35:00.576Z,2.68
2023-04-18T02:36:00.647Z,2.73
2023-04-18T02:37:00.755Z,2.57
2023-04-18T02:38:00.809Z,2.55
2023-04-18T02:39:00.878Z,2.65
2023-04-18T02:40:00.967Z,2.68
2023-04-18T02:41:01.040Z,2.64
2023-04-18T02:42:01.097Z,2.68
2023-04-18T02:43:01.176Z,2.63
2023-04-18T02:44:01.260Z,2.59
2023-04-18T02:45:01.330Z,2.58
2023-04-18T02:46:01.480Z,2.52
2023-04-18T02:47:01.558Z,2.43
2023-04-18T02:48:01.594Z,2.51
2023-04-18T02:49:01.625Z,2.51
2023-04-18T02:50:01.722Z,2.40
2023-04-18T02:51:01.791Z,2.46
2023-04-18T02:52:01.875Z,2.43
2023-04-18T02:53:01.936Z,2.47
2023-04-18T02:54:02.008Z,2.47
2023-04-18T02:55:02.094Z,2.48
2023-04-18T02:56:02.217Z,2.45
2023-04-18T02:57:02.335Z,2.42
2023-04-18T02:58:02.336Z,2.43
2023-04-18T02:59:02.417Z,2.42
2023-04-18T03:00:02.471Z,2.51
2023-04-18T03:01:02.575Z,2.51
2023-04-18T03:02:02.637Z,2.60
2023-04-18T03:03:02.860Z,2.63
2023-04-18T03:04:02.787Z,2.53
2023-04-18T03:05:02.926Z,2.53
2023-04-18T03:06:02.985Z,2.47
2023-04-18T03:07:03.037Z,2.41
2023-04-18T03:08:03.108Z,2.50
2023-04-18T03:09:03.190Z,2.46
2023-04-18T03:10:03.268Z,2.39
2023-04-18T03:11:03.356Z,2.44
2023-04-18T03:12:03.440Z,2.47
2023-04-18T03:13:03.478Z,2.53
2023-04-18T03:14:03.528Z,2.49
2023-04-18T03:15:03.593Z,2.44
2023-04-18T03:16:03.754Z,2.49
2023-04-18T03:17:03.734Z,2.54
2023-04-18T03:18:03.878Z,2.47
2023-04-18T03:19:03.900Z,2.46
2023-04-18T03:20:03.979Z,2.48
2023-04-18T03:21:04.065Z,2.48
2023-04-18T03:22:04.153Z,2.33
2023-04-18T03:23:04.232Z,2.40
2023-04-18T03:24:04.316Z,2.35
2023-04-18T03:25:04.420Z,2.37
2023-04-18T03:26:04.476Z,2.48
2023-04-18T03:27:04.577Z,2.41
2023-04-18T03:28:04.642Z,2.42
2023-04-18T03:29:04.733Z,2.41
2023-04-18T03:30:04.797Z,2.41
2023-04-18T03:31:04.932Z,2.34
2023-04-18T03:32:04.978Z,2.37
2023-04-18T03:33:05.064Z,2.48
2023-04-18T03:34:05.145Z,2.40
2023-04-18T03:35:05.220Z,2.45
2023-04-18T03:36:05.283Z,2.44
2023-04-18T03:37:05.346Z,2.46
2023-04-18T03:38:05.427Z,2.29
2023-04-18T03:39:05.510Z,2.38
2023-04-18T03:40:05.611Z,2.24
2023-04-18T03:41:05.665Z,2.27
2023-04-18T03:42:05.739Z,2.22
2023-04-18T03:43:05.791Z,2.33
2023-04-18T03:44:05.863Z,2.38
2023-04-18T03:45:05.929Z,2.36
2023-04-18T03:46:06.056Z,2.36
2023-04-18T03:47:06.082Z,2.31
2023-04-18T03:48:06.145Z,2.30
2023-04-18T03:49:06.224Z,2.31
2023-04-18T03:50:06.341Z,2.30
2023-04-18T03:51:06.364Z,2.30
2023-04-18T03:52:06.589Z,2.30
2023-04-18T03:53:06.583Z,2.30
2023-04-18T03:54:06.613Z,2.30
2023-04-18T03:55:06.641Z,2.34
2023-04-18T03:56:06.701Z,2.36
2023-04-18T03:57:06.806Z,2.38
2023-04-18T03:58:06.821Z,2.44
2023-04-18T03:59:06.851Z,2.47
2023-04-18T04:00:06.935Z,2.44
2023-04-18T04:01:06.947Z,2.34
2023-04-18T04:02:07.003Z,2.42
2023-04-18T04:03:07.188Z,2.37
2023-04-18T04:04:07.109Z,2.37
2023-04-18T04:05:07.076Z,2.34
2023-04-18T04:06:07.044Z,2.38
2023-04-18T04:07:07.058Z,2.35
2023-04-18T04:08:07.095Z,2.27
2023-04-18T04:09:07.094Z,2.22
2023-04-18T04:10:07.107Z,2.28
2023-04-18T04:11:07.120Z,2.27
2023-04-18T04:12:07.167Z,2.25
2023-04-18T04:13:07.251Z,2.22
2023-04-18T04:14:07.301Z,2.26
2023-04-18T04:15:07.337Z,2.30
2023-04-18T04:16:07.408Z,2.37
2023-04-18T04:17:07.441Z,2.29
2023-04-18T04:18:07.556Z,2.26
2023-04-18T04:19:07.581Z,2.25
2023-04-18T04:20:07.620Z,2.33
2023-04-18T04:21:07.716Z,2.27
2023-04-18T04:22:07.785Z,2.25
2023-04-18T04:23:07.822Z,2.23
2023-04-18T04:24:07.895Z,2.23
2023-04-18T04:25:07.964Z,2.27
2023-04-18T04:26:08.040Z,2.29
2023-04-18T04:27:08.137Z,2.32
2023-04-18T04:28:08.198Z,2.28
2023-04-18T04:29:08.369Z,2.22
2023-04-18T04:30:08.348Z,2.29
2023-04-18T04:31:08.469Z,2.28
2023-04-18T04:32:08.615Z,2.38
2023-04-18T04:33:08.586Z,2.29
2023-04-18T04:34:08.664Z,2.29
2023-04-18T04:35:08.748Z,2.24
2023-04-18T04:36:08.841Z,2.26
2023-04-18T04:37:08.913Z,2.30
2023-04-18T04:38:09.002Z,2.27
2023-04-18T04:39:09.087Z,2.27
2023-04-18T04:40:09.223Z,2.32
2023-04-18T04:41:09.256Z,2.28
2023-04-18T04:42:09.315Z,2.24
2023-04-18T04:43:09.387Z,2.25
2023-04-18T04:44:09.462Z,2.28
2023-04-18T04:45:09.566Z,2.27
2023-04-18T04:46:09.649Z,2.26
2023-04-18T04:47:09.820Z,2.34
2023-04-18T04:48:09.895Z,2.34
2023-04-18T04:49:09.780Z,2.34
2023-04-18T04:50:09.834Z,2.34
2023-04-18T04:51:09.856Z,2.35
2023-04-18T04:52:09.820Z,2.32
2023-04-18T04:53:09.841Z,2.33
2023-04-18T04:54:09.852Z,2.36
2023-04-18T04:55:09.883Z,2.31
2023-04-18T04:56:09.886Z,2.34
2023-04-18T04:57:09.917Z,2.41
2023-04-18T04:58:09.921Z,2.36
2023-04-18T04:59:09.974Z,2.30
2023-04-18T05:00:10.064Z,2.26
2023-04-18T05:01:10.166Z,2.17
2023-04-18T05:02:10.336Z,2.22
2023-04-18T05:03:10.500Z,2.26
2023-04-18T05:04:10.469Z,2.26
2023-04-18T05:05:10.433Z,2.35
2023-04-18T05:06:10.488Z,2.29
2023-04-18T05:07:10.561Z,2.34
2023-04-18T05:08:10.640Z,2.43
2023-04-18T05:09:10.739Z,2.35
2023-04-18T05:10:10.809Z,2.36
2023-04-18T05:11:10.869Z,2.36
2023-04-18T05:12:10.945Z,2.31
2023-04-18T05:13:11.041Z,2.26
2023-04-18T05:14:11.085Z,2.31
2023-04-18T05:15:11.176Z,2.35
2023-04-18T05:16:11.295Z,2.31
2023-04-18T05:17:11.325Z,2.34
2023-04-18T05:18:11.423Z,2.29
2023-04-18T05:19:11.455Z,2.21
2023-04-18T05:20:11.585Z,2.29
2023-04-18T05:21:11.598Z,2.33
2023-04-18T05:22:11.678Z,2.27
2023-04-18T05:23:11.741Z,2.21
2023-04-18T05:24:11.923Z,2.23
2023-04-18T05:25:11.927Z,2.17
2023-04-18T05:26:11.993Z,2.22
2023-04-18T05:27:12.105Z,2.37
2023-04-18T05:28:12.133Z,2.32
2023-04-18T05:29:12.219Z,2.34
2023-04-18T05:30:12.311Z,2.36
2023-04-18T05:31:12.466Z,2.43
2023-04-18T05:32:12.484Z,2.39
2023-04-18T05:33:12.538Z,2.36
2023-04-18T05:34:12.829Z,2.42
2023-04-18T05:35:12.685Z,2.39
2023-04-18T05:36:12.781Z,2.41
2023-04-18T05:37:12.970Z,2.43
2023-04-18T05:38:12.925Z,2.37
2023-04-18T05:39:12.991Z,2.34
2023-04-18T05:40:13.094Z,2.39
2023-04-18T05:41:13.134Z,2.35
2023-04-18T05:42:13.214Z,2.40
2023-04-18T05:43:13.336Z,2.42
2023-04-18T05:44:13.398Z,2.43
2023-04-18T05:45:13.510Z,2.45
2023-04-18T05:46:13.591Z,2.46
2023-04-18T05:47:13.592Z,2.43
2023-04-18T05:48:13.694Z,2.35
2023-04-18T05:49:13.699Z,2.36
2023-04-18T05:50:13.740Z,2.38
2023-04-18T05:51:13.740Z,2.38
2023-04-18T05:52:14.557Z,2.39
2023-04-18T05:53:13.835Z,2.42
2023-04-18T05:54:14.069Z,2.40
2023-04-18T05:55:13.833Z,2.41
2023-04-18T05:56:13.945Z,2.42
2023-04-18T05:57:13.785Z,2.41
2023-04-18T05:58:13.793Z,2.31
2023-04-18T05:59:13.814Z,2.40
2023-04-18T06:00:13.814Z,2.43
2023-04-18T06:01:13.852Z,2.50
2023-04-18T06:02:14.000Z,2.54
2023-04-18T06:03:14.162Z,2.46
2023-04-18T06:04:14.551Z,2.49
2023-04-18T06:05:14.864Z,2.48
2023-04-18T06:06:14.126Z,2.48
2023-04-18T06:07:14.206Z,2.47
2023-04-18T06:08:14.272Z,2.50
2023-04-18T06:09:14.390Z,2.50
2023-04-18T06:10:14.412Z,2.47
2023-04-18T06:11:14.487Z,2.48
2023-04-18T06:12:14.594Z,2.47
2023-04-18T06:13:14.658Z,2.48
2023-04-18T06:14:15.008Z,2.50
2023-04-18T06:15:14.804Z,2.51
2023-04-18T06:16:14.953Z,2.47
2023-04-18T06:17:14.980Z,2.51
2023-04-18T06:18:15.213Z,2.47
2023-04-18T06:19:15.224Z,2.42
2023-04-18T06:20:15.338Z,2.48
2023-04-18T06:21:15.262Z,2.56
2023-04-18T06:22:15.641Z,2.57
2023-04-18T06:23:15.523Z,2.54
2023-04-18T06:24:15.853Z,2.56
2023-04-18T06:25:15.589Z,2.52
2023-04-18T06:26:15.616Z,2.53
2023-04-18T06:27:28.231Z,2.53
2023-04-18T06:28:16.799Z,2.53
2023-04-18T06:29:15.784Z,2.54
2023-04-18T06:30:15.724Z,2.54
2023-04-18T06:31:15.802Z,2.58
2023-04-18T06:32:15.766Z,2.57
2023-04-18T06:33:15.763Z,2.63
2023-04-18T06:34:16.056Z,2.58
2023-04-18T06:35:15.771Z,2.61
2023-04-18T06:36:15.799Z,2.59
2023-04-18T06:37:15.863Z,2.60
2023-04-18T06:38:15.857Z,2.60
2023-04-18T06:39:15.857Z,2.61
2023-04-18T06:40:15.835Z,2.58
2023-04-18T06:41:15.887Z,2.67
2023-04-18T06:42:15.879Z,2.71
2023-04-18T06:43:15.886Z,2.69
2023-04-18T06:44:16.032Z,2.72
2023-04-18T06:45:15.884Z,2.69
2023-04-18T06:46:15.974Z,2.71
2023-04-18T06:47:15.998Z,2.70
2023-04-18T06:48:16.126Z,2.69
2023-04-18T06:49:16.127Z,2.68
2023-04-18T06:50:16.203Z,2.61
2023-04-18T06:51:16.306Z,2.58
2023-04-18T06:52:16.341Z,2.63
2023-04-18T06:53:16.412Z,2.65
2023-04-18T06:54:16.478Z,2.65
2023-04-18T06:55:16.560Z,2.64
2023-04-18T06:56:16.734Z,2.60
2023-04-18T06:57:17.622Z,2.68
2023-04-18T06:58:16.838Z,2.63
2023-04-18T06:59:17.014Z,2.62
2023-04-18T07:00:16.986Z,2.65
2023-04-18T07:01:17.077Z,2.55
2023-04-18T07:02:17.049Z,2.60
2023-04-18T07:03:17.395Z,2.62
2023-04-18T07:04:17.514Z,2.67
2023-04-18T07:05:17.244Z,2.61
2023-04-18T07:06:17.314Z,2.55
2023-04-18T07:07:17.396Z,2.57
2023-04-18T07:08:17.475Z,2.46
2023-04-18T07:09:17.592Z,2.33
2023-04-18T07:10:17.605Z,2.37
2023-04-18T07:11:17.661Z,2.37
2023-04-18T07:12:17.727Z,2.30
2023-04-18T07:13:17.803Z,2.33
2023-04-18T07:14:17.893Z,2.31
2023-04-18T07:15:17.934Z,2.25
2023-04-18T07:16:18.015Z,2.23
2023-04-18T07:17:18.161Z,2.19
2023-04-18T07:18:30.263Z,2.19
2023-04-18T07:19:18.184Z,2.19
2023-04-18T07:20:18.184Z,2.19
2023-04-18T07:21:18.170Z,2.20
2023-04-18T07:22:18.196Z,2.22
2023-04-18T07:23:18.185Z,2.21
2023-04-18T07:24:18.215Z,2.15
2023-04-18T07:25:18.472Z,2.17
2023-04-18T07:26:18.268Z,2.24
2023-04-18T07:27:18.242Z,2.20
2023-04-18T07:28:18.257Z,2.19
2023-04-18T07:29:18.321Z,2.21
2023-04-18T07:30:18.367Z,2.17
2023-04-18T07:31:18.505Z,2.17
2023-04-18T07:32:18.638Z,2.11
2023-04-18T07:33:19.193Z,2.14
2023-04-18T07:34:18.650Z,2.15
2023-04-18T07:35:18.701Z,2.07
2023-04-18T07:36:18.764Z,1.97
2023-04-18T07:37:18.833Z,2.00
2023-04-18T07:38:18.899Z,1.97
2023-04-18T07:39:18.968Z,1.88
2023-04-18T07:40:19.018Z,1.79
2023-04-18T07:41:19.117Z,1.84
2023-04-18T07:42:19.136Z,1.83
2023-04-18T07:43:20.896Z,1.85
2023-04-18T07:44:19.222Z,1.75
2023-04-18T07:45:19.277Z,1.62
2023-04-18T07:46:19.375Z,1.54
2023-04-18T07:47:22.382Z,1.58
2023-04-18T07:48:19.510Z,1.64
2023-04-18T07:49:19.416Z,1.64
2023-04-18T07:50:19.440Z,1.64
2023-04-18T07:51:19.438Z,1.61
2023-04-18T07:52:19.481Z,1.69
2023-04-18T07:53:19.480Z,1.69
2023-04-18T07:54:19.510Z,1.70
2023-04-18T07:55:19.478Z,1.72
2023-04-18T07:56:19.499Z,1.60
2023-04-18T07:57:19.533Z,1.58
2023-04-18T07:58:19.520Z,1.59
2023-04-18T07:59:19.601Z,1.63
2023-04-18T08:00:19.514Z,1.67
2023-04-18T08:01:19.538Z,1.62
2023-04-18T08:02:19.592Z,1.65
2023-04-18T08:03:19.910Z,1.59
2023-04-18T08:04:19.661Z,1.63
2023-04-18T08:05:19.844Z,1.51
2023-04-18T08:06:19.580Z,1.47
2023-04-18T08:07:19.604Z,1.46
2023-04-18T08:08:19.645Z,1.44
2023-04-18T08:09:19.686Z,1.46
2023-04-18T08:10:20.886Z,1.33
2023-04-18T08:11:19.779Z,1.40
2023-04-18T08:12:19.822Z,1.31
2023-04-18T08:13:19.944Z,1.29
2023-04-18T08:14:19.923Z,1.24
2023-04-18T08:15:19.952Z,1.28
2023-04-18T08:16:19.994Z,1.31
2023-04-18T08:17:20.064Z,1.25
2023-04-18T08:18:20.096Z,1.24
2023-04-18T08:19:20.133Z,1.20
2023-04-18T08:20:20.175Z,1.28
2023-04-18T08:21:20.220Z,1.23
2023-04-18T08:22:20.240Z,1.22
2023-04-18T08:23:20.308Z,1.24
2023-04-18T08:24:20.516Z,1.20
2023-04-18T08:25:20.393Z,1.21
2023-04-18T08:26:20.421Z,1.15
2023-04-18T08:27:20.493Z,1.09
2023-04-18T08:28:20.563Z,1.14
2023-04-18T08:29:21.294Z,1.12
2023-04-18T08:30:20.607Z,1.18
2023-04-18T08:31:20.757Z,1.15
2023-04-18T08:32:20.744Z,1.13
2023-04-18T08:33:20.750Z,1.16
2023-04-18T08:34:20.799Z,1.17
2023-04-18T08:35:20.837Z,1.16
2023-04-18T08:36:20.877Z,1.15
2023-04-18T08:37:20.944Z,1.10
2023-04-18T08:38:21.027Z,1.12
2023-04-18T08:39:21.022Z,1.13
2023-04-18T08:40:21.062Z,1.11
2023-04-18T08:41:21.125Z,1.14
2023-04-18T08:42:21.127Z,1.03
2023-04-18T08:43:21.164Z,1.02
2023-04-18T08:44:21.228Z,1.02
2023-04-18T08:45:21.232Z,1.05
2023-04-18T08:46:21.371Z,1.07
2023-04-18T08:47:21.358Z,1.04
2023-04-18T08:48:21.386Z,1.02
2023-04-18T08:49:21.408Z,1.02
2023-04-18T08:50:21.465Z,1.07
2023-04-18T08:51:21.463Z,1.11
2023-04-18T08:52:21.559Z,1.07
2023-04-18T08:53:21.528Z,1.06
2023-04-18T08:54:21.574Z,1.10
2023-04-18T08:55:21.631Z,1.12
2023-04-18T08:56:21.652Z,1.10
2023-04-18T08:57:21.675Z,1.08
2023-04-18T08:58:21.730Z,1.06
2023-04-18T08:59:22.677Z,1.02
2023-04-18T09:00:21.830Z,1.00
2023-04-18T09:01:21.937Z,0.99
2023-04-18T09:02:21.942Z,1.00
2023-04-18T09:03:21.985Z,0.99
2023-04-18T09:04:22.002Z,0.96
2023-04-18T09:05:21.975Z,0.89
2023-04-18T09:06:22.010Z,0.85
2023-04-18T09:07:22.041Z,0.86
2023-04-18T09:08:22.135Z,0.90
2023-04-18T09:09:22.154Z,0.91
2023-04-18T09:10:22.162Z,0.90
2023-04-18T09:11:22.187Z,0.90
2023-04-18T09:12:22.244Z,0.90
2023-04-18T09:13:24.166Z,0.83
2023-04-18T09:14:22.340Z,0.84
2023-04-18T09:15:22.348Z,0.82
2023-04-18T09:16:22.478Z,0.78
2023-04-18T09:17:22.565Z,0.77
2023-04-18T09:18:22.476Z,0.77
2023-04-18T09:19:22.507Z,0.75
2023-04-18T09:20:22.562Z,0.72
2023-04-18T09:21:22.543Z,0.72
2023-04-18T09:22:22.548Z,0.68
2023-04-18T09:23:22.558Z,0.70
2023-04-18T09:24:22.583Z,0.70
2023-04-18T09:25:22.593Z,0.66
2023-04-18T09:26:22.576Z,0.63
2023-04-18T09:27:22.608Z,0.64
2023-04-18T09:28:22.601Z,0.62
2023-04-18T09:29:22.731Z,0.62
2023-04-18T09:30:22.705Z,0.61
2023-04-18T09:31:22.692Z,0.59
2023-04-18T09:32:22.691Z,0.59
2023-04-18T09:33:22.600Z,0.59
2023-04-18T09:34:22.671Z,0.60
2023-04-18T09:35:22.617Z,0.56
2023-04-18T09:36:22.788Z,0.52
2023-04-18T09:37:22.630Z,0.56
2023-04-18T09:38:22.643Z,0.53
2023-04-18T09:39:22.635Z,0.55
2023-04-18T09:40:22.633Z,0.53
2023-04-18T09:41:22.651Z,0.55
2023-04-18T09:42:22.737Z,0.56
2023-04-18T09:43:22.740Z,0.58
2023-04-18T09:44:22.616Z,0.60
2023-04-18T09:45:22.696Z,0.57
2023-04-18T09:46:22.800Z,0.58
2023-04-18T09:47:22.652Z,0.58
2023-04-18T09:48:22.629Z,0.62
2023-04-18T09:49:22.805Z,0.60
2023-04-18T09:50:22.660Z,0.62
2023-04-18T09:51:22.678Z,0.57
2023-04-18T09:52:22.701Z,0.58
2023-04-18T09:53:23.696Z,0.61
2023-04-18T09:54:22.801Z,0.62
2023-04-18T09:55:22.808Z,0.61
2023-04-18T09:56:22.924Z,0.60
2023-04-18T09:57:22.895Z,0.61
2023-04-18T09:58:22.968Z,0.62
2023-04-18T09:59:22.934Z,0.59
2023-04-18T10:00:23.066Z,0.53
2023-04-18T10:01:23.050Z,0.55
2023-04-18T10:02:23.158Z,0.54
2023-04-18T10:03:23.122Z,0.55
2023-04-18T10:04:23.161Z,0.53
2023-04-18T10:05:23.162Z,0.50
2023-04-18T10:06:23.176Z,0.50
2023-04-18T10:07:23.194Z,0.51
2023-04-18T10:09:42.296Z,0.50
2023-04-18T10:10:42.312Z,0.50
2023-04-18T10:11:42.302Z,0.50
2023-04-18T10:12:42.311Z,0.50
2023-04-18T10:13:42.383Z,0.50
2023-04-18T10:14:42.350Z,0.51
2023-04-18T10:15:44.105Z,0.50
2023-04-18T10:16:42.526Z,0.50
2023-04-18T10:17:49.726Z,0.50
2023-04-18T10:18:43.457Z,0.47
2023-04-18T10:19:42.429Z,0.46
2023-04-18T10:20:42.598Z,0.46
2023-04-18T10:21:42.460Z,0.42
2023-04-18T10:22:42.464Z,0.46
2023-04-18T10:23:42.461Z,0.50
2023-04-18T10:24:42.505Z,0.51
2023-04-18T10:25:42.496Z,0.52
2023-04-18T10:26:42.523Z,0.50
2023-04-18T10:27:42.647Z,0.51
2023-04-18T10:28:42.563Z,0.50
2023-04-18T10:29:42.545Z,0.50
2023-04-18T10:30:42.588Z,0.51
2023-04-18T10:31:42.614Z,0.50
2023-04-18T10:32:42.633Z,0.50
2023-04-18T10:33:42.845Z,0.49
2023-04-18T10:34:42.611Z,0.46
2023-04-18T10:35:42.631Z,0.48
2023-04-18T10:36:42.704Z,0.49
2023-04-18T10:37:42.619Z,0.51
2023-04-18T10:38:42.638Z,0.53
2023-04-18T10:39:42.643Z,0.52
2023-04-18T10:40:42.633Z,0.54
2023-04-18T10:41:42.639Z,0.56
2023-04-18T10:42:42.638Z,0.59
2023-04-18T10:43:42.720Z,0.55
2023-04-18T10:44:42.651Z,0.55
2023-04-18T10:45:42.730Z,0.55
2023-04-18T10:46:43.091Z,0.56
2023-04-18T10:47:42.755Z,0.57
2023-04-18T10:48:42.659Z,0.56
2023-04-18T10:49:42.645Z,0.53
2023-04-18T10:50:42.652Z,0.53
2023-04-18T10:51:42.665Z,0.51
2023-04-18T10:52:42.650Z,0.50
2023-04-18T10:53:42.654Z,0.50
2023-04-18T10:54:42.694Z,0.50
2023-04-18T10:55:42.625Z,0.50
2023-04-18T10:56:42.669Z,0.48
2023-04-18T10:57:42.664Z,0.42
2023-04-18T10:58:42.623Z,0.42
2023-04-18T10:59:42.634Z,0.51
2023-04-18T11:00:42.663Z,0.54
2023-04-18T11:01:42.605Z,0.59
2023-04-18T11:02:42.646Z,0.60
2023-04-18T11:03:42.705Z,0.61
2023-04-18T11:04:42.868Z,0.61
2023-04-18T11:05:42.604Z,0.62
2023-04-18T11:06:42.605Z,0.65
2023-04-18T11:07:42.575Z,0.65
2023-04-18T11:08:42.665Z,0.65
2023-04-18T11:09:43.946Z,0.66
2023-04-18T11:10:42.584Z,0.67
2023-04-18T11:11:42.587Z,0.66
2023-04-18T11:12:42.614Z,0.66
2023-04-18T11:13:42.552Z,0.66
2023-04-18T11:14:42.549Z,0.64
2023-04-18T11:15:42.554Z,0.65
2023-04-18T11:16:42.596Z,0.64
2023-04-18T11:17:42.575Z,0.66
2023-04-18T11:18:42.532Z,0.67
2023-04-18T11:19:42.531Z,0.65
2023-04-18T11:20:42.531Z,0.66
2023-04-18T11:21:42.570Z,0.60
2023-04-18T11:22:42.532Z,0.61
2023-04-18T11:23:42.505Z,0.57
2023-04-18T11:24:42.514Z,0.55
2023-04-18T11:25:42.507Z,0.54
2023-04-18T11:26:42.511Z,0.56
2023-04-18T11:27:42.515Z,0.57
2023-04-18T11:28:42.510Z,0.55
2023-04-18T11:29:42.527Z,0.57
2023-04-18T11:30:42.539Z,0.57
2023-04-18T11:31:42.578Z,0.56
2023-04-18T11:32:42.562Z,0.57
2023-04-18T11:33:42.513Z,0.57
2023-04-18T11:34:42.491Z,0.56
2023-04-18T11:35:42.531Z,0.56
2023-04-18T11:36:42.491Z,0.56
2023-04-18T11:37:42.489Z,0.56
2023-04-18T11:38:42.513Z,0.57
2023-04-18T11:39:42.502Z,0.56
2023-04-18T11:40:42.496Z,0.58
2023-04-18T11:41:42.492Z,0.58
2023-04-18T11:42:42.530Z,0.58
2023-04-18T11:43:42.464Z,0.57
2023-04-18T11:44:42.463Z,0.58
2023-04-18T11:45:42.492Z,0.57
2023-04-18T11:46:42.467Z,0.56
2023-04-18T11:47:42.552Z,0.56
2023-04-18T11:48:42.434Z,0.58
2023-04-18T11:49:42.437Z,0.58
2023-04-18T11:50:42.438Z,0.58
2023-04-18T11:51:42.445Z,0.57
2023-04-18T11:52:42.579Z,0.55
2023-04-18T11:53:42.457Z,0.53
2023-04-18T11:54:42.445Z,0.54
2023-04-18T11:55:42.450Z,0.53
2023-04-18T11:56:42.450Z,0.54
2023-04-18T11:57:42.546Z,0.52
2023-04-18T11:58:42.449Z,0.53
2023-04-18T11:59:42.438Z,0.52
2023-04-18T12:00:42.422Z,0.51
2023-04-18T12:01:42.462Z,0.53
2023-04-18T12:02:42.593Z,0.52
2023-04-18T12:03:42.592Z,0.51
2023-04-18T12:04:42.579Z,0.50
2023-04-18T12:05:42.631Z,0.50
2023-04-18T12:06:42.440Z,0.51
2023-04-18T12:07:42.477Z,0.51
2023-04-18T12:08:42.404Z,0.51
2023-04-18T12:09:42.405Z,0.51
2023-04-18T12:10:42.401Z,0.50
2023-04-18T12:11:42.426Z,0.51
2023-04-18T12:12:42.403Z,0.52
2023-04-18T12:13:42.413Z,0.51
2023-04-18T12:14:42.411Z,0.51
2023-04-18T12:15:42.375Z,0.50
2023-04-18T12:16:42.406Z,0.52
2023-04-18T12:17:42.391Z,0.51
2023-04-18T12:18:42.380Z,0.48
2023-04-18T12:19:42.427Z,0.52
2023-04-18T12:20:42.377Z,0.53
2023-04-18T12:21:42.360Z,0.52
2023-04-18T12:22:42.355Z,0.53
2023-04-18T12:23:42.376Z,0.54
2023-04-18T12:24:42.327Z,0.55
2023-04-18T12:25:42.330Z,0.53
2023-04-18T12:26:42.395Z,0.53
2023-04-18T12:27:42.486Z,0.53
2023-04-18T12:28:42.634Z,0.51
2023-04-18T12:29:42.573Z,0.50
2023-04-18T12:30:42.636Z,0.52
2023-04-18T12:31:42.692Z,0.53
2023-04-18T12:32:42.759Z,0.54
2023-04-18T12:33:42.787Z,0.56
2023-04-18T12:34:42.850Z,0.56
2023-04-18T12:35:42.891Z,0.56
2023-04-18T12:36:42.958Z,0.56
2023-04-18T12:37:43.027Z,0.55
2023-04-18T12:38:43.100Z,0.57
2023-04-18T12:39:43.135Z,0.58
2023-04-18T12:40:43.199Z,0.60
2023-04-18T12:41:43.278Z,0.60
2023-04-18T12:42:43.308Z,0.60
2023-04-18T12:43:43.377Z,0.60
2023-04-18T12:44:43.460Z,0.63
2023-04-18T12:45:43.531Z,0.62
2023-04-18T12:46:43.588Z,0.61
2023-04-18T12:47:43.655Z,0.59
2023-04-18T12:48:43.691Z,0.60
2023-04-18T12:49:43.756Z,0.60
2023-04-18T12:50:43.797Z,0.60
2023-04-18T12:51:43.871Z,0.61
2023-04-18T12:52:43.935Z,0.59
2023-04-18T12:53:43.990Z,0.56
2023-04-18T12:54:44.046Z,0.58
2023-04-18T12:55:44.108Z,0.57
2023-04-18T12:56:44.180Z,0.58
2023-04-18T12:57:44.284Z,0.60
2023-04-18T12:58:44.321Z,0.60
2023-04-18T12:59:44.361Z,0.58
2023-04-18T13:00:44.471Z,0.57
2023-04-18T13:01:44.557Z,0.56
2023-04-18T13:02:44.749Z,0.56
2023-04-18T13:03:46.731Z,0.53
2023-04-18T13:04:45.753Z,0.53
2023-04-18T13:05:44.574Z,0.53
2023-04-18T13:06:44.602Z,0.53
2023-04-18T13:07:44.637Z,0.54
2023-04-18T13:08:44.569Z,0.55
2023-04-18T13:09:44.538Z,0.57
2023-04-18T13:10:44.564Z,0.57
2023-04-18T13:11:44.545Z,0.58
2023-04-18T13:12:44.598Z,0.55
2023-04-18T13:13:44.657Z,0.56
2023-04-18T13:14:44.727Z,0.57
2023-04-18T13:15:44.754Z,0.53
2023-04-18T13:16:45.101Z,0.55
2023-04-18T13:17:44.912Z,0.58
2023-04-18T13:18:44.915Z,0.59
2023-04-18T13:19:44.976Z,0.60
2023-04-18T13:20:45.036Z,0.62